createdAt,value
2023-04-09T00:01:47.302Z,59.55
2023-04-09T00:04:14.122Z,57.17
2023-04-09T00:06:40.965Z,56.08
2023-04-09T00:09:08.045Z,57.42
2023-04-09T00:11:34.756Z,54.30
2023-04-09T00:14:01.761Z,53.75
2023-04-09T00:16:28.680Z,59.80
2023-04-09T00:18:55.499Z,56.58
2023-04-09T00:21:22.545Z,58.67
2023-04-09T00:23:49.910Z,57.95
2023-04-09T00:26:16.634Z,59.22
2023-04-09T00:28:43.360Z,59.20
2023-04-09T00:31:10.103Z,58.38
2023-04-09T00:33:36.911Z,60.90
2023-04-09T00:36:05.206Z,62.05
2023-04-09T00:38:32.076Z,60.78
2023-04-09T00:40:59.045Z,58.28
2023-04-09T00:43:26.971Z,57.88
2023-04-09T00:45:54.148Z,59.17
2023-04-09T00:48:22.996Z,57.25
2023-04-09T00:50:51.917Z,57.25
2023-04-09T00:53:20.607Z,59.10
2023-04-09T00:55:47.402Z,61.50
2023-04-09T00:58:14.498Z,59.17
2023-04-09T01:00:41.251Z,60.03
2023-04-09T01:03:12.252Z,62.88
2023-04-09T01:06:01.658Z,56.20
2023-04-09T01:08:33.555Z,57.45
2023-04-09T01:11:28.063Z,61.30
2023-04-09T01:14:32.585Z,65.38
2023-04-09T01:17:13.462Z,61.38
2023-04-09T01:20:20.445Z,65.18
2023-04-09T01:23:16.232Z,62.95
2023-04-09T01:25:51.914Z,66.63
2023-04-09T01:28:25.702Z,70.75
2023-04-09T01:31:17.916Z,68.18
2023-04-09T01:33:45.483Z,69.70
2023-04-09T01:36:14.505Z,73.55
2023-04-09T01:38:45.101Z,75.97
2023-04-09T01:41:18.424Z,78.15
2023-04-09T01:43:46.620Z,72.90
2023-04-09T01:46:15.268Z,74.40
2023-04-09T01:48:44.233Z,72.10
2023-04-09T01:51:10.941Z,69.80
2023-04-09T01:53:42.803Z,66.55
2023-04-09T01:56:14.358Z,67.97
2023-04-09T01:58:42.419Z,70.45
2023-04-09T02:01:26.462Z,68.80
2023-04-09T02:04:09.686Z,70.60
2023-04-09T02:06:58.827Z,70.63
2023-04-09T02:09:29.679Z,68.18
2023-04-09T02:11:58.871Z,72.47
2023-04-09T02:14:27.390Z,70.60
2023-04-09T02:16:54.633Z,72.00
2023-04-09T02:19:21.354Z,67.45
2023-04-09T02:21:48.376Z,65.63
2023-04-09T02:24:15.161Z,67.90
2023-04-09T02:26:43.043Z,71.75
2023-04-09T02:29:09.753Z,70.72
2023-04-09T02:31:37.557Z,73.10
2023-04-09T02:34:06.330Z,72.65
2023-04-09T02:36:34.263Z,72.28
2023-04-09T02:39:00.920Z,69.18
2023-04-09T02:41:29.898Z,70.72
2023-04-09T02:43:58.990Z,69.70
2023-04-09T02:46:26.285Z,68.90
2023-04-09T02:48:53.224Z,69.55
2023-04-09T02:51:20.577Z,69.25
2023-04-09T02:53:47.340Z,70.53
2023-04-09T02:56:14.048Z,68.80
2023-04-09T02:58:40.781Z,71.45
2023-04-09T03:01:07.501Z,69.70
2023-04-09T03:03:34.232Z,69.25
2023-04-09T03:06:00.994Z,65.38
2023-04-09T03:08:27.793Z,68.82
2023-04-09T03:10:54.477Z,66.32
2023-04-09T03:13:21.170Z,68.53
2023-04-09T03:15:52.091Z,63.50
2023-04-09T03:18:19.184Z,67.63
2023-04-09T03:20:46.259Z,67.70
2023-04-09T03:23:13.242Z,68.60
2023-04-09T03:25:41.193Z,71.18
2023-04-09T03:28:07.904Z,68.35
2023-04-09T03:30:34.755Z,69.55
2023-04-09T03:33:02.600Z,71.75
2023-04-09T03:35:29.496Z,77.20
2023-04-09T03:37:57.543Z,82.53
2023-04-09T03:40:24.315Z,80.88
2023-04-09T03:42:52.099Z,80.80
2023-04-09T03:45:19.201Z,90.50
2023-04-09T03:47:47.161Z,87.22
2023-04-09T03:50:15.220Z,83.63
2023-04-09T03:52:43.548Z,88.22
2023-04-09T03:55:11.670Z,81.47
2023-04-09T03:57:39.897Z,79.47
2023-04-09T04:00:08.782Z,81.50
2023-04-09T04:02:39.190Z,87.32
2023-04-09T04:05:07.625Z,82.50
2023-04-09T04:07:34.402Z,92.75
2023-04-09T04:10:01.073Z,265.70
2023-04-09T04:12:27.777Z,549.88
2023-04-09T04:14:54.425Z,368.70
2023-04-09T04:17:21.122Z,395.70
2023-04-09T04:19:47.898Z,568.35
2023-04-09T04:22:14.616Z,397.77
2023-04-09T04:24:41.304Z,516.08
2023-04-09T04:27:08.063Z,502.88
2023-04-09T04:29:34.755Z,601.95
2023-04-09T04:32:02.918Z,771.75
2023-04-09T04:34:29.716Z,656.25
2023-04-09T04:36:57.810Z,333.25
2023-04-09T04:39:25.859Z,552.78
2023-04-09T04:41:52.773Z,479.33
2023-04-09T04:44:20.926Z,400.30
2023-04-09T04:46:49.053Z,549.80
2023-04-09T04:49:17.339Z,450.00
2023-04-09T04:51:46.379Z,594.05
2023-04-09T04:54:14.121Z,507.40
2023-04-09T04:56:40.852Z,406.60
2023-04-09T04:59:07.543Z,311.85
2023-04-09T05:01:34.493Z,211.95
2023-04-09T05:04:01.710Z,365.63
2023-04-09T05:06:28.396Z,288.15
2023-04-09T05:08:55.392Z,324.38
2023-04-09T05:11:22.413Z,229.65
2023-04-09T05:13:49.502Z,149.90
2023-04-09T05:16:20.336Z,184.23
2023-04-09T05:18:47.623Z,147.48
2023-04-09T05:21:14.323Z,133.73
2023-04-09T05:23:41.238Z,175.60
2023-04-09T05:26:08.101Z,153.40
2023-04-09T05:28:34.818Z,130.52
2023-04-09T05:31:01.507Z,181.75
2023-04-09T05:33:28.236Z,214.80
2023-04-09T05:35:57.126Z,129.02
2023-04-09T05:38:23.951Z,117.10
2023-04-09T05:40:51.152Z,142.00
2023-04-09T05:43:17.815Z,144.52
2023-04-09T05:45:44.483Z,122.03
2023-04-09T05:48:13.808Z,115.15
2023-04-09T05:50:51.595Z,102.13
2023-04-09T05:53:22.627Z,109.60
2023-04-09T05:55:49.422Z,98.95
2023-04-09T05:58:16.193Z,105.82
2023-04-09T06:00:42.988Z,83.03
2023-04-09T06:03:10.446Z,81.63
2023-04-09T06:05:38.688Z,113.00
2023-04-09T06:08:05.488Z,89.75
2023-04-09T06:10:33.430Z,84.22
2023-04-09T06:13:01.102Z,88.13
2023-04-09T06:15:29.020Z,88.65
2023-04-09T06:17:58.129Z,90.32
2023-04-09T06:20:27.055Z,87.65
2023-04-09T06:22:56.369Z,88.63
2023-04-09T06:25:24.963Z,96.45
2023-04-09T06:27:51.904Z,89.63
2023-04-09T06:30:20.071Z,83.85
2023-04-09T06:32:54.280Z,85.50
2023-04-09T06:35:23.556Z,84.20
2023-04-09T06:37:52.307Z,78.38
2023-04-09T06:40:23.019Z,78.35
2023-04-09T06:42:54.849Z,74.25
2023-04-09T06:45:31.276Z,79.18
2023-04-09T06:48:00.169Z,74.45
2023-04-09T06:50:28.376Z,73.13
2023-04-09T06:52:57.329Z,71.60
2023-04-09T06:55:24.814Z,75.93
2023-04-09T06:57:52.881Z,107.72
2023-04-09T07:00:21.750Z,75.72
2023-04-09T07:02:51.493Z,75.45
2023-04-09T07:05:18.806Z,77.18
2023-04-09T07:07:48.345Z,78.22
2023-04-09T07:10:15.177Z,75.70
2023-04-09T07:12:43.426Z,72.47
2023-04-09T07:15:11.309Z,75.72
2023-04-09T07:17:38.152Z,82.10
2023-04-09T07:20:05.383Z,71.65
2023-04-09T07:22:32.370Z,68.47
2023-04-09T07:24:59.145Z,75.63
2023-04-09T07:27:27.678Z,66.72
2023-04-09T07:29:55.912Z,73.07
2023-04-09T07:32:23.383Z,75.13
2023-04-09T07:34:53.789Z,72.60
2023-04-09T07:37:21.223Z,75.47
2023-04-09T07:39:49.837Z,66.10
2023-04-09T07:42:16.998Z,68.05
2023-04-09T07:44:43.779Z,70.25
2023-04-09T07:47:10.531Z,71.07
2023-04-09T07:49:37.425Z,68.03
2023-04-09T07:52:05.031Z,67.47
2023-04-09T07:54:32.126Z,69.13
2023-04-09T07:56:59.779Z,75.00
2023-04-09T07:59:26.821Z,72.75
2023-04-09T08:01:54.169Z,74.63
2023-04-09T08:04:21.239Z,72.57
2023-04-09T08:06:48.049Z,69.90
2023-04-09T08:09:15.713Z,69.47
2023-04-09T08:11:42.428Z,71.13
2023-04-09T08:14:11.599Z,71.43
2023-04-09T08:16:42.554Z,70.40
2023-04-09T08:19:16.660Z,67.97
2023-04-09T08:21:47.391Z,59.00
2023-04-09T08:24:15.693Z,67.57
2023-04-09T08:26:43.180Z,66.13
2023-04-09T08:29:14.806Z,68.05
2023-04-09T08:31:42.148Z,69.35
2023-04-09T08:34:12.650Z,63.90
2023-04-09T08:36:40.538Z,69.03
2023-04-09T08:39:17.148Z,67.53
2023-04-09T08:41:46.864Z,65.30
2023-04-09T08:44:13.993Z,66.13
2023-04-09T08:46:43.737Z,62.88
2023-04-09T08:49:10.966Z,62.97
2023-04-09T08:51:37.757Z,65.10
2023-04-09T08:54:05.141Z,59.05
2023-04-09T08:56:32.475Z,64.90
2023-04-09T08:58:59.250Z,65.28
2023-04-09T09:01:31.127Z,63.75
2023-04-09T09:04:02.573Z,60.95
2023-04-09T09:06:31.372Z,58.75
2023-04-09T09:09:18.124Z,58.05
2023-04-09T09:11:51.578Z,62.00
2023-04-09T09:14:22.280Z,61.10
2023-04-09T09:17:07.013Z,62.22
2023-04-09T09:19:35.054Z,64.32
2023-04-09T09:22:07.270Z,60.85
2023-04-09T09:24:48.507Z,55.28
2023-04-09T09:27:37.206Z,59.53
2023-04-09T09:30:05.179Z,61.38
2023-04-09T09:32:35.580Z,58.42
2023-04-09T09:35:07.181Z,59.00
2023-04-09T09:37:34.603Z,58.17
2023-04-09T09:40:01.552Z,55.95
2023-04-09T09:42:28.361Z,56.05
2023-04-09T09:44:56.783Z,53.65
2023-04-09T09:47:23.720Z,53.70
2023-04-09T09:49:54.696Z,56.72
2023-04-09T09:52:29.601Z,56.00
2023-04-09T09:55:03.585Z,53.90
2023-04-09T09:57:33.232Z,53.63
2023-04-09T10:00:02.624Z,54.25
2023-04-09T10:02:37.562Z,51.05
2023-04-09T10:05:14.308Z,50.27
2023-04-09T10:07:50.133Z,49.85
2023-04-09T10:12:47.077Z,49.45
2023-04-09T10:15:15.527Z,48.55
2023-04-09T10:17:43.888Z,50.33
2023-04-09T10:20:24.064Z,48.30
2023-04-09T10:22:52.407Z,46.05
2023-04-09T10:25:19.586Z,48.67
2023-04-09T10:27:46.927Z,50.63
2023-04-09T10:30:33.770Z,46.63
2023-04-09T10:33:15.139Z,46.28
2023-04-09T10:35:42.402Z,44.80
2023-04-09T10:38:10.257Z,46.53
2023-04-09T10:40:48.889Z,45.20
2023-04-09T10:43:19.269Z,46.03
2023-04-09T10:45:46.127Z,44.70
2023-04-09T10:48:13.896Z,42.33
2023-04-09T10:50:45.094Z,44.13
2023-04-09T10:53:25.675Z,41.13
2023-04-09T10:55:53.916Z,43.30
2023-04-09T10:58:20.721Z,50.30
2023-04-09T11:00:50.026Z,45.75
2023-04-09T11:03:29.826Z,43.60
2023-04-09T11:06:01.499Z,47.95
2023-04-09T11:08:30.025Z,61.85
2023-04-09T11:10:57.142Z,66.13
2023-04-09T11:13:24.536Z,54.85
2023-04-09T11:15:51.437Z,52.70
2023-04-09T11:18:23.378Z,46.58
2023-04-09T11:20:50.430Z,45.38
2023-04-09T11:23:18.207Z,42.67
2023-04-09T11:25:49.506Z,40.83
2023-04-09T11:28:16.440Z,43.50
2023-04-09T11:30:43.249Z,41.72
2023-04-09T11:33:11.563Z,43.38
2023-04-09T11:35:38.545Z,39.53
2023-04-09T11:38:10.877Z,43.33
2023-04-09T11:40:42.675Z,40.05
2023-04-09T11:43:10.780Z,39.88
2023-04-09T11:45:41.125Z,42.92
2023-04-09T11:48:09.592Z,40.13
2023-04-09T11:50:38.624Z,38.88
2023-04-09T11:53:22.411Z,39.10
2023-04-09T11:55:53.331Z,39.03
2023-04-09T11:58:25.590Z,40.88
2023-04-09T12:00:58.006Z,39.83
2023-04-09T12:03:30.059Z,36.17
2023-04-09T12:05:59.555Z,38.83
2023-04-09T12:08:27.752Z,41.85
2023-04-09T12:10:55.976Z,38.10
2023-04-09T12:13:32.997Z,38.33
2023-04-09T12:16:01.757Z,39.10
2023-04-09T12:18:31.052Z,37.70
2023-04-09T12:20:59.806Z,41.00
2023-04-09T12:23:27.967Z,38.28
2023-04-09T12:25:57.820Z,42.55
2023-04-09T12:28:28.719Z,37.70
2023-04-09T12:30:57.536Z,38.03
2023-04-09T12:33:24.527Z,35.17
2023-04-09T12:35:55.085Z,36.92
2023-04-09T12:38:25.056Z,35.78
2023-04-09T12:40:55.361Z,36.58
2023-04-09T12:43:24.907Z,41.00
2023-04-09T12:45:51.946Z,36.65
2023-04-09T12:48:21.857Z,35.20
2023-04-09T12:50:49.841Z,34.25
2023-04-09T12:53:18.352Z,36.30
2023-04-09T12:55:47.015Z,35.40
2023-04-09T12:58:17.326Z,33.20
2023-04-09T13:00:46.521Z,35.63
2023-04-09T13:03:17.188Z,32.88
2023-04-09T13:05:45.584Z,33.85
2023-04-09T13:08:12.572Z,36.28
2023-04-09T13:10:43.173Z,33.20
2023-04-09T13:13:11.075Z,34.40
2023-04-09T13:15:39.834Z,31.60
2023-04-09T13:18:07.708Z,33.33
2023-04-09T13:20:39.081Z,35.28
2023-04-09T13:23:06.838Z,31.88
2023-04-09T13:25:33.574Z,32.50
2023-04-09T13:28:00.365Z,33.60
2023-04-09T13:30:27.177Z,30.73
2023-04-09T13:32:53.987Z,33.10
2023-04-09T13:35:20.901Z,32.83
2023-04-09T13:37:47.981Z,33.92
2023-04-09T13:40:14.809Z,34.92
2023-04-09T13:42:41.531Z,30.52
2023-04-09T13:45:08.589Z,31.40
2023-04-09T13:47:35.424Z,30.05
2023-04-09T13:50:02.128Z,31.95
2023-04-09T13:52:29.683Z,31.35
2023-04-09T13:54:56.782Z,31.08
2023-04-09T13:57:24.498Z,29.60
2023-04-09T13:59:51.428Z,32.55
2023-04-09T14:02:18.419Z,28.67
2023-04-09T14:04:45.322Z,27.98
2023-04-09T14:07:13.279Z,28.02
2023-04-09T14:09:40.661Z,32.20
2023-04-09T14:12:08.763Z,31.80
2023-04-09T14:14:35.440Z,29.42
2023-04-09T14:17:03.787Z,28.70
2023-04-09T14:19:32.064Z,27.58
2023-04-09T14:22:00.433Z,29.20
2023-04-09T14:24:27.663Z,26.63
2023-04-09T14:26:56.627Z,28.67
2023-04-09T14:29:24.714Z,25.83
2023-04-09T14:31:55.298Z,29.50
2023-04-09T14:34:25.712Z,27.98
2023-04-09T14:36:53.085Z,28.95
2023-04-09T14:39:21.348Z,26.75
2023-04-09T14:41:50.502Z,26.70
2023-04-09T14:44:19.522Z,27.10
2023-04-09T14:46:48.535Z,26.63
2023-04-09T14:49:16.076Z,27.73
2023-04-09T14:51:44.793Z,26.42
2023-04-09T14:54:14.050Z,29.25
2023-04-09T14:56:41.927Z,42.30
2023-04-09T14:59:10.094Z,24.50
2023-04-09T15:01:36.972Z,24.33
2023-04-09T15:04:03.995Z,26.10
2023-04-09T15:06:32.168Z,25.38
2023-04-09T15:08:58.818Z,22.98
2023-04-09T15:11:25.560Z,22.55
2023-04-09T15:13:52.376Z,24.05
2023-04-09T15:16:24.037Z,22.92
2023-04-09T15:18:50.970Z,24.10
2023-04-09T15:21:21.809Z,24.35
2023-04-09T15:23:50.711Z,25.27
2023-04-09T15:26:17.454Z,26.90
2023-04-09T15:28:45.328Z,24.02
2023-04-09T15:31:13.030Z,27.60
2023-04-09T15:33:42.754Z,25.98
2023-04-09T15:36:09.676Z,25.00
2023-04-09T15:38:37.937Z,27.13
2023-04-09T15:41:05.235Z,26.38
2023-04-09T15:43:31.910Z,27.83
2023-04-09T15:45:58.586Z,28.02
2023-04-09T15:48:25.306Z,28.63
2023-04-09T15:50:52.006Z,26.70
2023-04-09T15:53:19.821Z,27.38
2023-04-09T15:55:46.498Z,26.00
2023-04-09T15:58:15.725Z,25.38
2023-04-09T16:00:42.407Z,25.70
2023-04-09T16:03:11.263Z,20.48
2023-04-09T16:05:38.699Z,21.02
2023-04-09T16:08:09.048Z,27.02
2023-04-09T16:10:38.073Z,22.00
2023-04-09T16:13:05.350Z,23.33
2023-04-09T16:15:33.454Z,23.52
2023-04-09T16:18:02.240Z,19.98
2023-04-09T16:20:32.085Z,20.45
2023-04-09T16:23:01.695Z,21.55
2023-04-09T16:25:28.920Z,18.70
2023-04-09T16:27:59.371Z,18.17
2023-04-09T16:30:27.422Z,18.15
2023-04-09T16:32:54.217Z,16.50
2023-04-09T16:35:22.444Z,18.38
2023-04-09T16:37:50.800Z,18.40
2023-04-09T16:40:17.686Z,20.02
2023-04-09T16:42:45.326Z,20.17
2023-04-09T16:45:12.079Z,21.85
2023-04-09T16:47:38.788Z,23.27
2023-04-09T16:50:06.318Z,20.88
2023-04-09T16:52:33.142Z,21.42
2023-04-09T16:54:59.896Z,20.77
2023-04-09T16:57:26.647Z,20.15
2023-04-09T16:59:53.320Z,20.88
2023-04-09T17:02:20.192Z,22.15
2023-04-09T17:04:47.147Z,21.75
2023-04-09T17:07:14.708Z,21.75
2023-04-09T17:09:41.746Z,23.15
2023-04-09T17:12:08.654Z,24.80
2023-04-09T17:14:35.808Z,24.80
2023-04-09T17:17:02.902Z,25.27
2023-04-09T17:19:30.816Z,24.30
2023-04-09T17:21:59.069Z,25.42
2023-04-09T17:24:26.642Z,28.20
2023-04-09T17:26:58.962Z,25.90
2023-04-09T17:29:32.726Z,29.20
2023-04-09T17:32:00.830Z,28.08
2023-04-09T17:34:33.698Z,28.23
2023-04-09T17:37:02.486Z,29.48
2023-04-09T17:39:43.611Z,28.23
2023-04-09T17:42:11.100Z,30.83
2023-04-09T17:44:38.828Z,33.25
2023-04-09T17:47:11.720Z,30.23
2023-04-09T17:49:39.945Z,29.30
2023-04-09T17:52:06.671Z,32.28
2023-04-09T17:54:34.215Z,32.13
2023-04-09T17:57:01.991Z,31.45
2023-04-09T17:59:28.852Z,32.70
2023-04-09T18:01:55.603Z,34.50
2023-04-09T18:04:24.267Z,31.85
2023-04-09T18:06:51.662Z,33.90
2023-04-09T18:09:18.674Z,33.78
2023-04-09T18:11:46.269Z,32.40
2023-04-09T18:14:13.221Z,33.75
2023-04-09T18:16:41.196Z,34.45
2023-04-09T18:19:09.458Z,37.47
2023-04-09T18:21:37.596Z,37.60
2023-04-09T18:24:04.872Z,38.92
2023-04-09T18:26:32.923Z,38.25
2023-04-09T18:29:00.983Z,37.22
2023-04-09T18:31:29.473Z,40.60
2023-04-09T18:33:57.570Z,40.38
2023-04-09T18:36:25.884Z,38.47
2023-04-09T18:38:55.670Z,41.83
2023-04-09T18:41:27.443Z,40.13
2023-04-09T18:43:56.074Z,41.05
2023-04-09T18:46:23.530Z,40.67
2023-04-09T18:48:51.846Z,42.75
2023-04-09T18:51:20.968Z,43.42
2023-04-09T18:53:48.822Z,46.08
2023-04-09T18:56:18.152Z,45.33
2023-04-09T18:58:49.389Z,43.65
2023-04-09T19:01:20.974Z,43.40
2023-04-09T19:03:49.341Z,45.65
2023-04-09T19:06:18.833Z,43.15
2023-04-09T19:08:50.352Z,45.22
2023-04-09T19:11:18.402Z,45.78
2023-04-09T19:13:48.560Z,47.05
2023-04-09T19:16:20.513Z,43.13
2023-04-09T19:18:53.211Z,42.10
2023-04-09T19:21:26.528Z,41.75
2023-04-09T19:23:54.608Z,50.58
2023-04-09T19:26:26.501Z,44.63
2023-04-09T19:28:54.708Z,46.50
2023-04-09T19:31:27.261Z,45.00
2023-04-09T19:33:59.618Z,43.88
2023-04-09T19:36:33.807Z,49.95
2023-04-09T19:39:01.549Z,43.88
2023-04-09T19:41:34.148Z,45.38
2023-04-09T19:44:06.905Z,48.92
2023-04-09T19:49:12.303Z,47.55
2023-04-09T19:51:40.938Z,46.55
2023-04-09T19:54:09.013Z,47.13
2023-04-09T19:56:37.412Z,48.58
2023-04-09T19:59:06.404Z,48.53
2023-04-09T20:01:33.284Z,50.75
2023-04-09T20:04:00.163Z,46.65
2023-04-09T20:06:27.012Z,45.30
2023-04-09T20:08:54.376Z,52.00
2023-04-09T20:11:21.250Z,51.63
2023-04-09T20:13:48.147Z,48.75
2023-04-09T20:16:15.683Z,48.55
2023-04-09T20:18:44.052Z,46.45
2023-04-09T20:21:20.444Z,50.40
2023-04-09T20:23:51.501Z,51.42
2023-04-09T20:26:21.827Z,62.90
2023-04-09T20:28:51.483Z,62.05
2023-04-09T20:31:19.552Z,48.83
2023-04-09T20:33:49.660Z,50.72
2023-04-09T20:36:21.282Z,47.65
2023-04-09T20:38:51.151Z,46.65
2023-04-09T20:41:18.235Z,49.00
2023-04-09T20:43:44.882Z,49.45
2023-04-09T20:46:13.060Z,48.83
2023-04-09T20:48:44.215Z,56.33
2023-04-09T20:51:12.147Z,54.47
2023-04-09T20:53:50.000Z,56.00
2023-04-09T20:56:18.089Z,52.72
2023-04-09T20:58:45.949Z,51.63
2023-04-09T21:01:12.750Z,46.53
2023-04-09T21:03:41.312Z,50.50
2023-04-09T21:06:09.480Z,55.95
2023-04-09T21:11:19.104Z,52.60
2023-04-09T21:13:54.733Z,49.60
2023-04-09T21:16:23.410Z,54.25
2023-04-09T21:18:51.820Z,52.75
2023-04-09T21:21:19.802Z,49.33
2023-04-09T21:23:46.564Z,52.10
2023-04-09T21:26:14.531Z,49.03
2023-04-09T21:28:41.212Z,50.92
2023-04-09T21:31:10.490Z,49.17
2023-04-09T21:33:41.983Z,46.03
2023-04-09T21:36:10.100Z,50.60
2023-04-09T21:38:41.206Z,57.60
2023-04-09T21:41:08.199Z,49.90
2023-04-09T21:43:34.867Z,51.13
2023-04-09T21:46:01.640Z,45.75
2023-04-09T21:48:28.430Z,46.60
2023-04-09T21:50:55.134Z,50.78
2023-04-09T21:53:21.834Z,49.92
2023-04-09T21:55:48.610Z,50.78
2023-04-09T21:58:15.724Z,50.22
2023-04-09T22:00:42.484Z,53.25
2023-04-09T22:03:09.441Z,55.72
2023-04-09T22:05:36.249Z,59.25
2023-04-09T22:08:02.989Z,48.33
2023-04-09T22:10:29.707Z,47.58
2023-04-09T22:12:56.383Z,47.30
2023-04-09T22:15:23.050Z,52.97
2023-04-09T22:17:52.252Z,46.22
2023-04-09T22:20:18.988Z,40.05
2023-04-09T22:22:45.726Z,46.45
2023-04-09T22:25:12.742Z,44.08
2023-04-09T22:27:40.538Z,40.97
2023-04-09T22:30:08.312Z,38.80
2023-04-09T22:32:36.338Z,42.22
2023-04-09T22:35:03.150Z,42.65
2023-04-09T22:37:31.114Z,42.08
2023-04-09T22:39:58.116Z,40.38
2023-04-09T22:42:25.977Z,38.47
2023-04-09T22:44:53.129Z,41.15
2023-04-09T22:47:19.896Z,39.38
2023-04-09T22:49:46.587Z,38.72
2023-04-09T22:52:13.266Z,45.22
2023-04-09T22:54:39.931Z,39.00
2023-04-09T22:57:06.629Z,39.97
2023-04-09T22:59:40.025Z,35.65
2023-04-09T23:02:07.790Z,41.28
2023-04-09T23:04:34.650Z,40.15
2023-04-09T23:07:01.376Z,40.63
2023-04-09T23:09:28.174Z,44.25
2023-04-09T23:11:54.842Z,41.28
2023-04-09T23:14:21.523Z,39.03
2023-04-09T23:16:48.227Z,40.80
2023-04-09T23:19:14.924Z,41.90
2023-04-09T23:21:43.278Z,42.10
2023-04-09T23:24:09.968Z,39.42
2023-04-09T23:26:36.949Z,37.65
2023-04-09T23:29:03.674Z,40.47
2023-04-09T23:31:30.731Z,39.25
2023-04-09T23:34:01.107Z,39.85
2023-04-09T23:36:28.993Z,32.97
2023-04-09T23:38:57.234Z,39.03
2023-04-09T23:41:25.454Z,36.22
2023-04-09T23:43:54.844Z,38.47
2023-04-09T23:46:24.378Z,39.03
2023-04-09T23:48:52.442Z,33.60
2023-04-09T23:51:23.187Z,32.42
2023-04-09T23:53:53.536Z,33.67
2023-04-09T23:56:22.091Z,33.47
2023-04-09T23:58:49.249Z,32.70
